Time;durP1;ratioP1;P1;durP2;ratioP2;P2;SDS_P1;SDS_P2;PMS_P1;PMS_P2;Temp;Humidity;BMP_temperature;BMP_pressure;BME280_temperature;BME280_humidity;BME280_pressure;Samples;Min_cycle;Max_cycle;Signal;HPM_P1;HPM_P2
2023/06/11 00:07:00;;;;;;;2.05;0.90;;;23.90;40.90;;;;;;2546601;54;21065;-74
2023/06/11 00:10:39;;;;;;;;;;;;;;;;;;;;;
2023/06/11 00:14:00;;;;;;;;;;;;;;;;;;;;;
2023/06/11 01:00:35;;;;;;;3.95;1.40;;;23.70;41.60;;;;;;2541314;54;21046;-75
2023/06/11 01:03:34;;;;;;;1.87;0.98;;;23.60;41.40;;;;;;2497240;54;22827;-74
2023/06/11 01:06:12;;;;;;;2.35;1.00;;;23.10;41.60;;;;;;2474905;55;21023;-75
2023/06/11 01:08:39;;;;;;;2.22;1.08;;;23.00;41.90;;;;;;2250700;55;20984;-75
2023/06/11 01:11:13;;;;;;;2.60;1.50;;;23.00;42.10;;;;;;2510559;54;21419;-75
2023/06/11 01:13:42;;;;;;;2.53;1.33;;;22.90;43.10;;;;;;2509321;54;21036;-75
2023/06/11 01:17:15;;;;;;;2.55;1.40;;;22.90;42.60;;;;;;2517002;54;21405;-73
2023/06/11 01:19:55;;;;;;;3.37;1.40;;;22.80;43.00;;;;;;2509922;54;20947;-74
2023/06/11 01:24:17;;;;;;;2.80;1.48;;;22.80;42.80;;;;;;2515276;54;21690;-75
2023/06/11 01:27:21;;;;;;;2.50;1.35;;;22.80;43.20;;;;;;2536037;54;21045;-74
2023/06/11 01:29:50;;;;;;;2.55;1.35;;;22.80;43.30;;;;;;2501072;55;21119;-75
2023/06/11 01:32:32;;;;;;;2.97;1.52;;;22.70;42.90;;;;;;2517774;54;21098;-75
2023/06/11 01:35:08;;;;;;;2.72;1.52;;;22.70;43.10;;;;;;2461961;55;20982;-74
2023/06/11 01:37:36;;;;;;;3.15;1.60;;;22.70;43.40;;;;;;2264142;55;21889;-74
2023/06/11 01:40:03;;;;;;;2.80;1.50;;;22.70;43.40;;;;;;2519176;55;21015;-74
2023/06/11 01:42:29;;;;;;;2.80;1.67;;;22.60;43.40;;;;;;2505889;54;21002;-74
2023/06/11 01:44:58;;;;;;;2.60;1.50;;;22.50;43.40;;;;;;2486917;54;21077;-74
2023/06/11 01:47:25;;;;;;;3.22;1.65;;;22.60;43.50;;;;;;2543383;54;21007;-74
2023/06/11 01:49:55;;;;;;;2.83;1.75;;;22.50;43.60;;;;;;2536532;54;20984;-74
2023/06/11 01:52:22;;;;;;;2.97;1.85;;;22.50;43.80;;;;;;2515772;54;20959;-74
2023/06/11 01:54:49;;;;;;;3.10;1.60;;;22.50;43.90;;;;;;2539146;54;20963;-75
2023/06/11 01:57:17;;;;;;;2.70;1.60;;;22.50;43.90;;;;;;2528912;54;20956;-75
2023/06/11 01:59:47;;;;;;;2.50;1.58;;;22.40;43.90;;;;;;2548831;54;20960;-74
2023/06/11 02:02:14;;;;;;;2.90;1.80;;;22.40;44.00;;;;;;2302130;55;20992;-75
2023/06/11 02:04:40;;;;;;;2.87;1.87;;;22.40;44.10;;;;;;2534846;54;21404;-75
2023/06/11 02:07:07;;;;;;;3.35;1.98;;;22.40;44.30;;;;;;2535109;54;21011;-75
2023/06/11 02:09:34;;;;;;;2.80;1.67;;;22.40;44.40;;;;;;2552054;53;21003;-74
2023/06/11 02:12:02;;;;;;;2.78;1.73;;;22.30;44.30;;;;;;2551670;54;20956;-75
2023/06/11 02:14:29;;;;;;;3.03;1.70;;;22.30;44.40;;;;;;2544133;54;21004;-74
2023/06/11 02:16:55;;;;;;;3.17;1.75;;;22.20;44.30;;;;;;2298332;55;20956;-74
2023/06/11 02:19:22;;;;;;;2.83;1.70;;;22.20;44.40;;;;;;2295652;55;20955;-74
2023/06/11 02:21:51;;;;;;;3.50;2.00;;;22.20;44.40;;;;;;2551199;54;21409;-74
2023/06/11 02:24:18;;;;;;;3.65;1.70;;;22.10;44.40;;;;;;2315594;55;21523;-74
2023/06/11 02:26:44;;;;;;;2.75;1.50;;;22.10;44.50;;;;;;2315844;55;20960;-75
2023/06/11 02:29:11;;;;;;;3.12;1.83;;;22.10;44.60;;;;;;2531274;54;21028;-75
2023/06/11 02:31:37;;;;;;;4.35;2.28;;;22.00;44.60;;;;;;2543600;54;21031;-74
2023/06/11 02:34:05;;;;;;;3.22;2.10;;;22.00;45.00;;;;;;2549304;54;20988;-74
2023/06/11 02:36:31;;;;;;;3.25;1.52;;;22.00;45.10;;;;;;2531768;54;21048;-75
2023/06/11 02:38:57;;;;;;;2.85;1.87;;;22.00;45.10;;;;;;2545371;54;20940;-74
2023/06/11 02:41:25;;;;;;;2.95;1.80;;;21.90;45.00;;;;;;2549284;54;20976;-74
2023/06/11 02:43:51;;;;;;;2.60;1.45;;;21.90;45.10;;;;;;2313337;55;21461;-73
2023/06/11 02:46:19;;;;;;;3.25;1.87;;;21.90;45.10;;;;;;2551179;54;21011;-74
2023/06/11 02:48:47;;;;;;;2.70;1.50;;;21.80;45.10;;;;;;2537291;54;21051;-74
2023/06/11 02:51:14;;;;;;;3.03;1.80;;;21.80;45.20;;;;;;2524540;54;20928;-75
2023/06/11 02:53:40;;;;;;;3.20;2.08;;;21.80;45.20;;;;;;2539388;54;20995;-74
2023/06/11 02:56:08;;;;;;;2.85;1.73;;;21.70;45.30;;;;;;2520913;54;21019;-74
2023/06/11 02:58:34;;;;;;;3.20;2.03;;;21.70;45.40;;;;;;2525888;54;20988;-74
2023/06/11 03:01:01;;;;;;;2.92;1.77;;;21.60;45.40;;;;;;2544709;54;21046;-74
2023/06/11 03:03:27;;;;;;;3.92;1.87;;;21.60;45.50;;;;;;2520871;54;20912;-75
2023/06/11 03:05:53;;;;;;;2.85;1.70;;;21.60;45.50;;;;;;2538504;54;21015;-75
2023/06/11 03:08:20;;;;;;;3.10;1.70;;;21.60;45.60;;;;;;2527996;54;21015;-75
2023/06/11 03:10:46;;;;;;;4.45;2.00;;;21.50;45.60;;;;;;2546846;54;20944;-74
2023/06/11 03:13:15;;;;;;;3.25;1.77;;;21.50;45.70;;;;;;2539285;54;21529;-74
2023/06/11 03:15:42;;;;;;;3.17;1.90;;;21.50;45.80;;;;;;2518586;54;21022;-74
2023/06/11 03:18:08;;;;;;;2.87;1.70;;;21.40;45.90;;;;;;2535501;54;21751;-74
2023/06/11 03:20:34;;;;;;;3.85;1.90;;;21.40;46.00;;;;;;2524416;54;20987;-75
2023/06/11 03:23:02;;;;;;;3.22;1.98;;;21.40;46.20;;;;;;2529011;54;21024;-74
2023/06/11 03:25:28;;;;;;;3.00;1.85;;;21.30;46.20;;;;;;2532556;54;20988;-74
2023/06/11 03:27:54;;;;;;;3.65;2.17;;;21.30;46.20;;;;;;2523834;54;20972;-74
2023/06/11 03:30:21;;;;;;;3.12;1.92;;;21.30;46.30;;;;;;2551485;54;20943;-74
2023/06/11 03:32:47;;;;;;;2.80;1.77;;;21.30;46.60;;;;;;2551443;54;21015;-74
2023/06/11 03:35:15;;;;;;;3.30;2.08;;;21.30;46.40;;;;;;2314918;55;20991;-74
2023/06/11 03:37:42;;;;;;;3.00;1.80;;;21.20;46.40;;;;;;2526779;54;21016;-74
2023/06/11 03:40:10;;;;;;;5.12;1.75;;;21.20;46.60;;;;;;2313155;55;21000;-74
2023/06/11 03:42:37;;;;;;;2.87;2.00;;;21.20;46.60;;;;;;2551127;54;21033;-74
2023/06/11 03:45:04;;;;;;;3.00;1.65;;;21.20;46.70;;;;;;2552540;54;21453;-75
2023/06/11 03:47:32;;;;;;;3.58;2.10;;;21.20;46.80;;;;;;2548214;54;20975;-75
2023/06/11 03:49:58;;;;;;;3.70;2.28;;;21.10;46.80;;;;;;2548305;54;20986;-74
2023/06/11 03:52:28;;;;;;;4.45;2.03;;;21.10;46.80;;;;;;2529323;54;20932;-74
2023/06/11 03:54:56;;;;;;;3.25;2.12;;;21.10;47.10;;;;;;2537271;54;21003;-74
2023/06/11 03:57:22;;;;;;;4.57;2.30;;;21.10;47.20;;;;;;2538994;54;21007;-75
2023/06/11 03:59:49;;;;;;;3.03;1.83;;;21.10;47.20;;;;;;2540914;54;20985;-74
2023/06/11 04:02:17;;;;;;;3.75;2.20;;;21.10;47.30;;;;;;2534068;54;21051;-75
2023/06/11 04:04:44;;;;;;;2.83;1.73;;;21.10;47.40;;;;;;2531630;54;21039;-74
2023/06/11 04:07:10;;;;;;;3.20;1.80;;;21.10;47.50;;;;;;2306840;55;21500;-74
2023/06/11 04:09:36;;;;;;;3.47;1.98;;;21.10;47.60;;;;;;2549378;54;21502;-74
2023/06/11 04:12:03;;;;;;;3.30;2.00;;;21.10;47.60;;;;;;2552543;54;20988;-73
2023/06/11 04:14:30;;;;;;;3.53;2.05;;;21.10;47.70;;;;;;2541568;54;20984;-74
2023/06/11 04:16:56;;;;;;;3.05;1.75;;;21.10;47.80;;;;;;2298919;55;20912;-73
2023/06/11 04:19:23;;;;;;;3.12;1.90;;;21.10;47.80;;;;;;2551961;54;21836;-74
2023/06/11 04:21:49;;;;;;;4.12;2.20;;;21.10;47.90;;;;;;2550163;54;21000;-74
2023/06/11 04:24:15;;;;;;;3.75;2.03;;;21.10;48.00;;;;;;2553083;54;21398;-74
2023/06/11 04:26:43;;;;;;;3.20;1.73;;;21.10;48.00;;;;;;2552448;54;20944;-75
2023/06/11 04:29:09;;;;;;;3.45;1.98;;;21.10;48.00;;;;;;2314121;55;20964;-74
2023/06/11 04:31:37;;;;;;;3.45;2.22;;;21.20;48.20;;;;;;2550407;54;20968;-74
2023/06/11 04:34:06;;;;;;;3.33;1.90;;;21.20;48.30;;;;;;2521790;54;21055;-74
2023/06/11 04:36:34;;;;;;;3.33;2.17;;;21.20;48.30;;;;;;2547275;54;21008;-74
2023/06/11 04:39:10;;;;;;;3.45;1.98;;;21.20;48.30;;;;;;2551674;54;20944;-74
2023/06/11 04:41:36;;;;;;;3.40;2.12;;;21.20;48.40;;;;;;2523853;54;21072;-74
2023/06/11 04:44:03;;;;;;;3.28;1.98;;;21.20;48.60;;;;;;2315585;55;20932;-74
2023/06/11 04:46:32;;;;;;;3.10;1.95;;;21.30;48.70;;;;;;2550750;54;21422;-73
2023/06/11 04:49:06;;;;;;;5.00;2.35;;;21.30;49.30;;;;;;2551211;54;21921;-74
2023/06/11 04:51:33;;;;;;;3.95;1.87;;;21.30;48.80;;;;;;2518624;54;21045;-74
2023/06/11 04:54:01;;;;;;;3.40;2.00;;;21.30;48.80;;;;;;2531492;54;21015;-74
2023/06/11 04:56:28;;;;;;;2.97;1.90;;;21.30;48.90;;;;;;2522697;54;20993;-74
2023/06/11 04:58:54;;;;;;;3.30;2.03;;;21.40;48.90;;;;;;2519269;54;21865;-74
2023/06/11 05:01:22;;;;;;;3.53;2.17;;;21.40;48.90;;;;;;2534286;54;20920;-75
2023/06/11 05:03:49;;;;;;;3.22;1.90;;;21.40;49.00;;;;;;2550625;54;20963;-75
2023/06/11 05:06:21;;;;;;;3.28;2.03;;;21.40;49.00;;;;;;2551652;54;20953;-73
2023/06/11 05:08:47;;;;;;;3.30;2.00;;;21.50;49.10;;;;;;2533421;54;21502;-74
2023/06/11 05:11:14;;;;;;;3.55;2.50;;;21.50;49.10;;;;;;2533474;54;20973;-74
2023/06/11 05:13:41;;;;;;;3.25;2.00;;;21.50;49.20;;;;;;2532606;54;20948;-75
2023/06/11 05:16:08;;;;;;;3.40;2.25;;;21.50;49.30;;;;;;2551754;54;20972;-74
2023/06/11 05:18:35;;;;;;;2.92;1.80;;;21.50;49.20;;;;;;2303552;55;21117;-73
2023/06/11 05:21:03;;;;;;;4.10;2.25;;;21.60;49.30;;;;;;2520986;54;20972;-74
2023/06/11 05:23:31;;;;;;;3.70;1.90;;;21.60;49.40;;;;;;2543157;54;20971;-74
2023/06/11 05:26:18;;;;;;;3.45;2.15;;;21.70;49.60;;;;;;2314894;55;21024;-76
2023/06/11 05:28:46;;;;;;;3.62;2.42;;;21.70;49.50;;;;;;2550495;54;21039;-74
2023/06/11 05:31:15;;;;;;;3.85;2.60;;;21.80;49.70;;;;;;2552181;54;20991;-74
2023/06/11 05:33:42;;;;;;;4.37;2.08;;;21.80;49.80;;;;;;2315384;55;21796;-75
2023/06/11 05:36:09;;;;;;;4.87;2.30;;;21.90;49.80;;;;;;2552844;54;20991;-75
2023/06/11 05:38:39;;;;;;;4.18;3.03;;;21.90;49.80;;;;;;2520935;54;20960;-76
2023/06/11 05:41:06;;;;;;;4.22;2.80;;;21.90;50.00;;;;;;2308245;55;21115;-75
2023/06/11 05:43:35;;;;;;;4.15;2.53;;;22.00;50.20;;;;;;2531814;54;20964;-76
2023/06/11 05:46:05;;;;;;;4.75;2.50;;;22.10;50.20;;;;;;2518776;54;20986;-75
2023/06/11 05:48:43;;;;;;;4.15;2.35;;;22.10;50.20;;;;;;2534646;54;21039;-74
2023/06/11 05:51:14;;;;;;;4.50;2.58;;;22.20;50.40;;;;;;2551155;54;21060;-75
2023/06/11 05:53:41;;;;;;;3.62;2.45;;;22.20;50.60;;;;;;2301161;55;20971;-75
2023/06/11 05:56:15;;;;;;;3.83;2.30;;;22.30;50.50;;;;;;2528538;54;21007;-74
2023/06/11 05:58:48;;;;;;;4.28;2.92;;;22.30;50.50;;;;;;2523565;54;21026;-75
2023/06/11 06:01:24;;;;;;;4.28;3.03;;;22.40;51.00;;;;;;2549266;54;20995;-74
2023/06/11 06:04:40;;;;;;;4.18;2.83;;;22.50;51.50;;;;;;2308001;55;21056;-75
2023/06/11 06:09:23;;;;;;;5.03;3.40;;;22.60;51.20;;;;;;2497953;54;20984;-76
2023/06/11 06:27:55;;;;;;;3.20;1.90;;;23.20;50.50;;;;;;2545515;54;21079;-78
2023/06/11 07:34:06;;;;;;;2.08;1.08;;;24.10;50.30;;;;;;2297507;55;20978;-75
2023/06/11 07:56:23;;;;;;;3.20;2.15;;;26.00;49.20;;;;;;2220592;57;21154;-75
2023/06/11 08:07:40;;;;;;;;;;;;;;;;;;;;;
2023/06/11 08:14:45;;;;;;;4.85;2.50;;;27.10;48.20;;;;;;2278480;56;20995;-78
2023/06/11 09:06:44;;;;;;;2.97;1.45;;;27.40;47.80;;;;;;2325043;57;21906;-75
2023/06/11 09:14:36;;;;;;;;;;;;;;;;;;;;;
2023/06/11 09:25:35;;;;;;;;;;;;;;;;;;;;;
2023/06/11 10:32:49;;;;;;;2.72;1.73;;;29.70;45.10;;;;;;2125790;58;21505;-79
2023/06/11 10:46:42;;;;;;;;;;;;;;;;;;;;;
2023/06/11 11:11:52;;;;;;;2.37;1.35;;;31.10;43.00;;;;;;2411990;55;21072;-73
2023/06/11 11:14:55;;;;;;;2.62;1.73;;;31.20;42.50;;;;;;2436611;55;20979;-74
2023/06/11 11:18:23;;;;;;;2.83;1.73;;;31.20;41.90;;;;;;2469254;55;20996;-75
2023/06/11 11:22:29;;;;;;;2.85;1.70;;;31.30;41.70;;;;;;2459121;55;21037;-76
2023/06/11 11:26:00;;;;;;;;;;;;;;;;;;;;;
2023/06/11 11:29:36;;;;;;;3.65;1.80;;;31.40;41.90;;;;;;2471217;55;21065;-75
2023/06/11 13:06:13;;;;;;;;;;;;;;;;;;;;;
2023/06/11 13:25:04;;;;;;;2.70;1.48;;;32.60;37.00;;;;;;2533520;53;22517;-68
2023/06/11 13:27:31;;;;;;;2.37;1.33;;;32.60;37.30;;;;;;2306877;54;20975;-69
2023/06/11 13:29:58;;;;;;;2.47;1.40;;;32.60;37.20;;;;;;2537316;54;20947;-70
2023/06/11 13:32:25;;;;;;;2.65;1.45;;;32.60;37.20;;;;;;2537660;54;21004;-68
2023/06/11 13:34:52;;;;;;;2.35;1.50;;;32.60;37.10;;;;;;2288011;54;21082;-69
2023/06/11 13:37:19;;;;;;;3.12;1.58;;;32.50;37.10;;;;;;2514988;54;21265;-70
2023/06/11 13:39:45;;;;;;;2.62;1.33;;;32.70;37.10;;;;;;2509203;53;20939;-67
2023/06/11 13:42:12;;;;;;;2.60;1.62;;;32.70;37.10;;;;;;2544807;53;21032;-69
2023/06/11 13:44:41;;;;;;;2.42;1.40;;;32.70;37.20;;;;;;2284573;55;21054;-70
2023/06/11 13:47:08;;;;;;;3.10;1.75;;;32.70;36.60;;;;;;2514468;54;20989;-69
2023/06/11 13:49:35;;;;;;;2.58;1.60;;;32.80;36.60;;;;;;2524892;54;21003;-69
2023/06/11 13:52:02;;;;;;;3.47;1.67;;;32.80;36.30;;;;;;2309923;54;21829;-69
2023/06/11 13:54:28;;;;;;;2.55;1.50;;;32.80;36.30;;;;;;2314922;54;20970;-70
2023/06/11 13:56:55;;;;;;;2.95;1.60;;;32.80;36.30;;;;;;2315667;54;21019;-69
2023/06/11 13:59:24;;;;;;;2.75;1.92;;;32.80;35.90;;;;;;2534936;53;21010;-69
2023/06/11 14:01:54;;;;;;;2.83;1.87;;;32.80;35.70;;;;;;2279115;55;21024;-70
2023/06/11 14:04:22;;;;;;;2.80;1.52;;;32.90;35.40;;;;;;2277452;55;21437;-69
2023/06/11 14:06:48;;;;;;;2.60;1.52;;;32.90;35.30;;;;;;2275905;54;21685;-70
2023/06/11 14:09:15;;;;;;;2.35;1.45;;;32.90;35.50;;;;;;2499544;54;21010;-71
2023/06/11 14:11:43;;;;;;;2.50;1.40;;;33.00;35.70;;;;;;2510140;53;21431;-71
2023/06/11 14:14:11;;;;;;;3.25;1.70;;;33.00;35.40;;;;;;2305744;55;21030;-69
2023/06/11 14:16:40;;;;;;;2.78;1.60;;;33.10;35.20;;;;;;2308781;54;20943;-69
2023/06/11 14:19:09;;;;;;;3.00;1.67;;;33.10;35.00;;;;;;2307203;54;21007;-67
2023/06/11 14:21:36;;;;;;;2.55;1.50;;;33.10;34.90;;;;;;2306846;54;21059;-68
2023/06/11 14:24:04;;;;;;;2.80;1.70;;;33.20;35.10;;;;;;2544668;54;21413;-69
2023/06/11 14:26:30;;;;;;;2.90;1.60;;;33.30;35.20;;;;;;2303682;54;20935;-70
2023/06/11 14:28:59;;;;;;;2.72;1.58;;;33.30;34.90;;;;;;2544596;54;21911;-66
2023/06/11 14:31:37;;;;;;;2.62;1.40;;;33.30;34.50;;;;;;2543393;54;21039;-70
2023/06/11 14:34:04;;;;;;;2.45;1.40;;;33.40;34.10;;;;;;2542855;54;21533;-71
2023/06/11 14:36:30;;;;;;;2.55;1.48;;;33.40;34.30;;;;;;2530260;53;20971;-68
2023/06/11 14:38:57;;;;;;;4.05;1.50;;;33.50;34.30;;;;;;2304882;55;20947;-70
2023/06/11 14:41:26;;;;;;;3.40;1.60;;;33.50;34.30;;;;;;2305190;55;21384;-72
2023/06/11 14:43:52;;;;;;;2.60;1.65;;;33.60;34.10;;;;;;2304744;54;21027;-70
2023/06/11 14:46:18;;;;;;;2.42;1.40;;;33.70;34.00;;;;;;2542975;53;21635;-74
2023/06/11 14:48:46;;;;;;;3.03;1.55;;;33.70;33.80;;;;;;2543709;53;20973;-74
2023/06/11 14:51:13;;;;;;;2.83;1.62;;;33.70;33.80;;;;;;2304410;55;20961;-70
2023/06/11 14:53:39;;;;;;;2.90;1.60;;;33.80;33.80;;;;;;2301535;55;21004;-70
2023/06/11 14:56:07;;;;;;;2.65;1.67;;;33.80;33.70;;;;;;2527073;54;20948;-70
2023/06/11 14:58:33;;;;;;;4.85;1.98;;;33.80;33.80;;;;;;2569012;53;20992;-70
2023/06/11 15:01:04;;;;;;;2.80;1.70;;;33.80;33.60;;;;;;2341125;54;21773;-70
2023/06/11 15:03:30;;;;;;;2.87;1.60;;;33.90;33.30;;;;;;2341743;54;20964;-72
2023/06/11 15:05:56;;;;;;;2.40;1.27;;;33.90;33.00;;;;;;2586559;53;20936;-68
2023/06/11 15:08:23;;;;;;;3.90;1.65;;;33.90;33.70;;;;;;2587041;53;22303;-70
2023/06/11 15:10:52;;;;;;;2.87;1.52;;;33.90;33.00;;;;;;2586481;52;21824;-74
2023/06/11 15:13:19;;;;;;;2.97;1.48;;;33.90;32.80;;;;;;2583205;53;21022;-70
2023/06/11 15:15:46;;;;;;;2.67;1.60;;;33.90;32.50;;;;;;2554117;54;21024;-70
2023/06/11 15:18:13;;;;;;;2.70;1.58;;;34.00;32.50;;;;;;2559976;53;20999;-74
2023/06/11 15:20:39;;;;;;;2.50;1.48;;;34.00;32.40;;;;;;2332285;54;20983;-73
2023/06/11 15:23:06;;;;;;;2.97;1.60;;;34.00;32.30;;;;;;2558464;53;21397;-71
2023/06/11 15:25:34;;;;;;;2.72;1.60;;;34.00;32.10;;;;;;2323830;54;21492;-72
2023/06/11 15:28:05;;;;;;;2.97;1.90;;;34.00;31.80;;;;;;2562887;53;21529;-72
2023/06/11 15:30:31;;;;;;;2.65;1.45;;;33.90;31.40;;;;;;2336520;54;20968;-70
2023/06/11 15:32:59;;;;;;;2.50;1.35;;;33.90;31.60;;;;;;2588343;53;20957;-71
2023/06/11 15:35:26;;;;;;;2.50;1.37;;;33.90;31.70;;;;;;2341445;55;21374;-75
2023/06/11 15:37:52;;;;;;;2.83;1.65;;;33.90;31.10;;;;;;2587944;53;21096;-75
2023/06/11 15:40:22;;;;;;;2.62;1.42;;;33.90;30.90;;;;;;2587403;53;20960;-71
2023/06/11 15:42:57;;;;;;;2.97;1.60;;;33.80;30.80;;;;;;2343073;54;21048;-73
2023/06/11 15:45:26;;;;;;;2.47;1.50;;;33.90;30.80;;;;;;2341979;54;20925;-69
2023/06/11 15:47:56;;;;;;;3.33;1.60;;;33.80;30.70;;;;;;2565000;53;20947;-70
2023/06/11 15:50:22;;;;;;;3.25;1.77;;;33.80;30.70;;;;;;2572594;53;20978;-71
2023/06/11 15:52:49;;;;;;;3.85;1.80;;;33.80;30.70;;;;;;2319353;54;21290;-76
2023/06/11 15:55:16;;;;;;;2.78;1.55;;;33.80;30.60;;;;;;2582807;53;20928;-75
2023/06/11 15:57:44;;;;;;;3.00;1.60;;;33.80;30.60;;;;;;2575779;53;20972;-75
2023/06/11 16:00:13;;;;;;;2.58;1.33;;;33.70;30.60;;;;;;2565291;53;21012;-74
2023/06/11 16:02:40;;;;;;;2.50;1.40;;;33.70;30.70;;;;;;2587354;53;20912;-74
2023/06/11 16:05:07;;;;;;;2.62;1.40;;;33.70;30.80;;;;;;2342153;55;21481;-71
2023/06/11 16:07:35;;;;;;;2.60;1.52;;;33.70;30.70;;;;;;2587362;53;21068;-70
2023/06/11 16:10:01;;;;;;;4.03;1.60;;;33.70;30.50;;;;;;2341112;54;20989;-72
2023/06/11 16:12:28;;;;;;;5.93;4.00;;;33.70;30.10;;;;;;2586193;53;21636;-70
2023/06/11 16:14:55;;;;;;;3.95;2.35;;;33.70;30.00;;;;;;2587359;53;20988;-73
2023/06/11 16:17:22;;;;;;;3.05;1.87;;;33.70;30.00;;;;;;2587649;53;20960;-74
2023/06/11 16:19:49;;;;;;;4.37;1.60;;;33.70;29.90;;;;;;2587408;53;20929;-74
2023/06/11 16:22:16;;;;;;;2.95;1.50;;;33.70;29.70;;;;;;2553814;53;20979;-73
2023/06/11 16:24:43;;;;;;;3.28;1.40;;;33.60;29.60;;;;;;2586899;53;20957;-72
2023/06/11 16:27:10;;;;;;;2.85;1.52;;;33.60;29.50;;;;;;2341199;55;20932;-75
2023/06/11 16:29:36;;;;;;;3.80;1.60;;;33.60;29.40;;;;;;2341281;54;21006;-75
2023/06/11 16:32:03;;;;;;;2.97;1.58;;;33.60;29.60;;;;;;2319414;54;20988;-74
2023/06/11 16:34:29;;;;;;;2.30;1.17;;;33.60;30.00;;;;;;2340835;54;20909;-72
2023/06/11 16:36:56;;;;;;;2.50;1.15;;;33.60;29.70;;;;;;2587472;53;20941;-72
2023/06/11 16:39:22;;;;;;;3.28;1.40;;;33.60;29.80;;;;;;2341808;55;20944;-73
2023/06/11 16:41:53;;;;;;;2.87;1.52;;;33.50;29.70;;;;;;2334767;54;21867;-72
2023/06/11 16:44:19;;;;;;;2.50;1.45;;;33.50;29.70;;;;;;2566441;53;21558;-72
2023/06/11 16:46:46;;;;;;;2.53;1.40;;;33.50;29.50;;;;;;2336982;54;21005;-72
2023/06/11 16:49:13;;;;;;;2.40;1.42;;;33.50;29.40;;;;;;2341333;55;20929;-71
2023/06/11 16:51:39;;;;;;;2.47;1.48;;;33.50;29.40;;;;;;2587596;53;20973;-71
2023/06/11 16:54:06;;;;;;;2.70;1.50;;;33.50;29.30;;;;;;2586953;53;20969;-73
2023/06/11 16:56:37;;;;;;;2.37;1.17;;;33.50;29.30;;;;;;2554257;53;21485;-74
2023/06/11 16:59:03;;;;;;;2.65;1.48;;;33.50;29.30;;;;;;2588319;53;20936;-75
2023/06/11 17:01:30;;;;;;;3.83;1.60;;;33.50;29.10;;;;;;2563637;53;21372;-73
2023/06/11 17:04:03;;;;;;;3.25;2.05;;;33.50;29.00;;;;;;2314888;54;20992;-72
2023/06/11 17:06:29;;;;;;;3.08;1.90;;;33.40;28.80;;;;;;2340698;54;20940;-71
2023/06/11 17:08:56;;;;;;;2.40;1.23;;;33.40;29.00;;;;;;2583482;53;21715;-73
2023/06/11 17:11:22;;;;;;;2.72;1.42;;;33.40;29.10;;;;;;2317738;54;20988;-73
2023/06/11 17:13:52;;;;;;;2.80;1.60;;;33.40;29.10;;;;;;2340929;55;20969;-77
2023/06/11 17:16:20;;;;;;;2.60;1.40;;;33.40;29.10;;;;;;2587648;53;20992;-73
2023/06/11 17:18:47;;;;;;;2.80;1.65;;;33.40;29.10;;;;;;2554102;53;21031;-74
2023/06/11 17:21:14;;;;;;;3.00;1.85;;;33.30;28.90;;;;;;2587917;53;21008;-71
2023/06/11 17:23:41;;;;;;;2.75;1.60;;;33.30;28.70;;;;;;2587577;53;20953;-73
2023/06/11 17:26:09;;;;;;;4.32;1.48;;;33.30;28.80;;;;;;2588475;53;20936;-72
2023/06/11 17:28:35;;;;;;;2.42;1.42;;;33.30;28.70;;;;;;2290701;54;21088;-72
2023/06/11 17:31:03;;;;;;;2.72;1.48;;;33.30;28.80;;;;;;2569989;53;21834;-75
2023/06/11 17:33:30;;;;;;;2.58;1.48;;;33.30;28.90;;;;;;2514993;54;21453;-75
2023/06/11 17:35:57;;;;;;;2.83;1.60;;;33.30;28.70;;;;;;2508709;53;21671;-75
2023/06/11 17:38:24;;;;;;;2.72;1.50;;;33.30;28.60;;;;;;2517051;54;21439;-72
2023/06/11 17:40:50;;;;;;;2.60;1.40;;;33.30;28.80;;;;;;2532710;54;20889;-73
2023/06/11 17:43:19;;;;;;;2.85;1.45;;;33.30;28.80;;;;;;2316574;55;21996;-70
2023/06/11 17:45:49;;;;;;;2.72;1.55;;;33.50;29.10;;;;;;2580892;53;20980;-72
2023/06/11 17:48:15;;;;;;;2.83;1.65;;;33.50;29.20;;;;;;2336195;55;20951;-72
2023/06/11 17:50:42;;;;;;;2.45;1.35;;;33.60;28.90;;;;;;2573646;53;21363;-73
2023/06/11 17:53:09;;;;;;;3.60;1.77;;;33.80;28.90;;;;;;2549163;54;20941;-71
2023/06/11 17:55:36;;;;;;;2.58;1.40;;;34.00;28.80;;;;;;2284292;55;21756;-74
2023/06/11 17:58:05;;;;;;;2.85;1.50;;;34.10;28.70;;;;;;2517195;54;20986;-73
2023/06/11 18:00:32;;;;;;;3.00;1.30;;;34.40;28.70;;;;;;2516732;54;21480;-74
2023/06/11 18:02:59;;;;;;;2.42;1.42;;;34.60;28.80;;;;;;2524205;53;20984;-71
2023/06/11 18:05:27;;;;;;;2.80;1.52;;;34.80;28.70;;;;;;2292105;55;21687;-73
2023/06/11 18:07:56;;;;;;;2.72;1.42;;;35.00;28.30;;;;;;2519451;54;21424;-74
2023/06/11 18:10:25;;;;;;;4.07;1.33;;;35.30;28.30;;;;;;2299288;55;20971;-75
2023/06/11 18:12:57;;;;;;;2.70;1.52;;;35.50;28.20;;;;;;2555487;54;20999;-76
2023/06/11 18:15:24;;;;;;;3.10;1.60;;;35.80;27.80;;;;;;2555327;54;20963;-73
2023/06/11 18:17:58;;;;;;;2.92;1.48;;;35.90;27.60;;;;;;2314901;55;20932;-78
2023/06/11 18:20:28;;;;;;;2.37;1.35;;;36.10;27.20;;;;;;2314241;55;21022;-76
2023/06/11 18:22:55;;;;;;;3.15;1.40;;;36.30;27.40;;;;;;2547322;53;21907;-75
2023/06/11 18:25:25;;;;;;;2.03;1.15;;;36.40;26.80;;;;;;2313097;54;21312;-73
2023/06/11 18:27:52;;;;;;;2.37;1.30;;;36.40;26.60;;;;;;2313719;54;20960;-73
2023/06/11 18:30:23;;;;;;;2.35;1.17;;;36.50;26.60;;;;;;2311446;54;20993;-72
2023/06/11 18:32:49;;;;;;;2.30;1.20;;;36.50;26.50;;;;;;2554970;54;20944;-76
2023/06/11 18:35:17;;;;;;;3.67;1.20;;;36.50;26.40;;;;;;2314645;54;20917;-72
2023/06/11 18:37:44;;;;;;;2.47;1.23;;;36.40;26.40;;;;;;2314266;55;21998;-74
2023/06/11 18:40:10;;;;;;;2.17;1.20;;;36.30;26.30;;;;;;2318265;55;20933;-73
2023/06/11 18:42:40;;;;;;;2.10;1.00;;;36.30;26.40;;;;;;2314612;55;21005;-71
2023/06/11 18:45:07;;;;;;;2.75;1.40;;;36.10;26.30;;;;;;2555986;54;20925;-73
2023/06/11 18:47:35;;;;;;;3.12;1.30;;;36.00;26.30;;;;;;2555267;54;21611;-73
2023/06/11 18:50:21;;;;;;;2.22;1.10;;;35.90;26.50;;;;;;2555363;53;20932;-73
2023/06/11 18:53:02;;;;;;;2.42;1.00;;;35.80;26.50;;;;;;2316500;54;20952;-78
2023/06/11 18:55:31;;;;;;;2.67;1.17;;;35.60;26.60;;;;;;2553564;53;20924;-74
2023/06/11 18:58:05;;;;;;;1.95;1.02;;;35.40;26.50;;;;;;2555695;53;21518;-73
2023/06/11 19:00:32;;;;;;;2.53;1.27;;;35.30;26.50;;;;;;2555117;53;21019;-73
2023/06/11 19:03:00;;;;;;;3.03;1.25;;;35.10;26.50;;;;;;2315516;54;20994;-74
2023/06/11 19:05:26;;;;;;;2.30;1.15;;;34.90;26.30;;;;;;2555479;53;21721;-73
2023/06/11 19:07:53;;;;;;;2.20;1.20;;;34.70;26.40;;;;;;2556144;53;20951;-72
2023/06/11 19:10:22;;;;;;;2.62;1.40;;;34.50;26.40;;;;;;2555908;53;20927;-72
2023/06/11 19:12:50;;;;;;;2.60;1.45;;;34.30;26.40;;;;;;2556093;53;21440;-74
2023/06/11 19:15:16;;;;;;;2.85;1.35;;;34.20;26.40;;;;;;2315809;54;20975;-73
2023/06/11 19:17:44;;;;;;;2.08;1.05;;;34.00;26.40;;;;;;2556260;53;20959;-73
2023/06/11 19:20:11;;;;;;;2.85;1.25;;;33.80;26.50;;;;;;2555120;53;21011;-72
2023/06/11 19:22:37;;;;;;;3.22;1.20;;;33.60;26.60;;;;;;2316285;54;20940;-71
2023/06/11 19:25:07;;;;;;;3.50;1.92;;;33.40;26.70;;;;;;2323089;54;21823;-71
2023/06/11 19:27:34;;;;;;;3.00;1.65;;;33.20;26.70;;;;;;2556058;52;21049;-71
2023/06/11 19:30:01;;;;;;;2.47;1.27;;;33.10;26.70;;;;;;2563530;53;20951;-70
2023/06/11 19:32:28;;;;;;;2.50;1.42;;;32.90;26.80;;;;;;2334999;54;20962;-71
2023/06/11 19:34:54;;;;;;;2.90;1.40;;;32.70;26.80;;;;;;2589128;53;20974;-73
2023/06/11 19:37:21;;;;;;;2.67;1.50;;;32.60;26.90;;;;;;2589466;52;21030;-72
2023/06/11 19:39:47;;;;;;;1.98;1.00;;;32.40;27.00;;;;;;2589890;52;20994;-72
2023/06/11 19:42:14;;;;;;;2.20;1.20;;;32.20;27.00;;;;;;2589575;53;20997;-73
2023/06/11 19:44:42;;;;;;;2.83;1.50;;;32.10;27.10;;;;;;2584729;52;21018;-72
2023/06/11 19:47:08;;;;;;;3.22;1.33;;;31.90;27.20;;;;;;2590248;53;20956;-71
2023/06/11 19:49:35;;;;;;;2.67;1.30;;;31.80;27.30;;;;;;2342622;54;21515;-75
2023/06/11 19:52:02;;;;;;;2.70;1.42;;;31.60;27.30;;;;;;2343472;54;20961;-72
2023/06/11 19:54:29;;;;;;;2.72;1.60;;;31.50;27.40;;;;;;2342739;54;20942;-71
2023/06/11 19:57:00;;;;;;;2.40;1.30;;;31.30;27.60;;;;;;2343669;54;21026;-70
2023/06/11 19:59:30;;;;;;;2.62;1.40;;;31.20;27.80;;;;;;2588808;53;21448;-73
2023/06/11 20:01:57;;;;;;;3.05;1.30;;;31.00;28.00;;;;;;2588403;53;21081;-74
2023/06/11 20:04:25;;;;;;;2.70;1.60;;;31.00;28.40;;;;;;2343482;54;21461;-77
2023/06/11 20:06:52;;;;;;;2.87;1.50;;;30.80;28.40;;;;;;2589614;52;21062;-74
2023/06/11 20:09:19;;;;;;;2.58;1.45;;;30.60;28.50;;;;;;2588962;53;21061;-73
2023/06/11 20:11:52;;;;;;;2.75;1.40;;;30.40;28.60;;;;;;2341847;57;21133;-76
2023/06/11 20:14:22;;;;;;;2.47;1.27;;;30.30;28.70;;;;;;2342280;57;21181;-73
2023/06/11 20:16:48;;;;;;;3.10;1.50;;;30.20;28.90;;;;;;2588812;52;21054;-74
2023/06/11 20:19:15;;;;;;;2.70;1.50;;;30.10;28.90;;;;;;2589789;53;21109;-74
2023/06/11 20:21:41;;;;;;;2.20;1.23;;;29.90;29.00;;;;;;2573456;53;21016;-75
2023/06/11 20:24:08;;;;;;;2.60;1.30;;;29.80;29.10;;;;;;2325700;57;21109;-74
2023/06/11 20:26:35;;;;;;;2.45;1.30;;;29.70;29.20;;;;;;2342124;57;21062;-72
2023/06/11 20:29:03;;;;;;;2.45;1.35;;;29.60;29.20;;;;;;2343057;57;21046;-77